createdAt,value
2019-06-20T00:00:08.278Z,1006.01
2019-06-20T00:02:00.581Z,1006.03
2019-06-20T00:03:06.090Z,1006.02
2019-06-20T00:04:12.641Z,1006.01
2019-06-20T00:05:17.211Z,1006.02
2019-06-20T00:06:23.587Z,1006.05
2019-06-20T00:07:28.336Z,1006.03
2019-06-20T00:08:33.871Z,1006.04
2019-06-20T00:09:40.147Z,1006.05
2019-06-20T00:10:44.984Z,1006.04
2019-06-20T00:11:50.538Z,1006.08
2019-06-20T00:13:00.402Z,1006.08
2019-06-20T00:14:01.650Z,1006.06
2019-06-20T00:15:16.076Z,1006.08
2019-06-20T00:17:10.814Z,1006.15
2019-06-20T00:18:16.257Z,1006.19
2019-06-20T00:19:21.808Z,1006.14
2019-06-20T00:20:27.371Z,1006.12
2019-06-20T00:21:32.919Z,1006.11
2019-06-20T00:22:38.515Z,1006.07
2019-06-20T00:23:44.040Z,1006.01
2019-06-20T00:24:49.605Z,1006.01
2019-06-20T00:25:55.152Z,1006.06
2019-06-20T00:27:00.698Z,1006.09
2019-06-20T00:28:06.265Z,1006.07
2019-06-20T00:29:11.804Z,1006.05
2019-06-20T00:30:25.062Z,1006.06
2019-06-20T00:32:17.349Z,1005.97
2019-06-20T00:33:22.916Z,1006.02
2019-06-20T00:35:34.520Z,1006.03
2019-06-20T00:36:40.000Z,1006.02
2019-06-20T00:37:45.570Z,1005.94
2019-06-20T00:38:51.103Z,1005.99
2019-06-20T00:39:56.662Z,1005.97
2019-06-20T00:41:02.870Z,1005.98
2019-06-20T00:42:07.770Z,1005.99
2019-06-20T00:43:17.513Z,1005.98
2019-06-20T00:44:18.881Z,1005.98
2019-06-20T00:45:32.130Z,1005.96
2019-06-20T00:47:28.079Z,1005.92
2019-06-20T00:48:33.520Z,1005.94
2019-06-20T00:49:39.070Z,1005.93
2019-06-20T00:50:44.610Z,1005.93
2019-06-20T00:51:50.162Z,1005.89
2019-06-20T00:52:56.483Z,1005.86
2019-06-20T00:55:33.460Z,1005.75
2019-06-20T00:56:38.994Z,1005.72
2019-06-20T00:58:38.958Z,1005.70
2019-06-20T00:59:45.520Z,1005.67
2019-06-20T01:01:43.746Z,1005.64
2019-06-20T01:02:49.240Z,1005.65
2019-06-20T01:04:49.322Z,1005.66
2019-06-20T01:05:54.746Z,1005.64
2019-06-20T01:07:54.729Z,1005.63
2019-06-20T01:09:00.264Z,1005.63
2019-06-20T01:11:01.823Z,1005.65
2019-06-20T01:12:07.293Z,1005.64
2019-06-20T01:13:12.853Z,1005.64
2019-06-20T01:14:18.455Z,1005.61
2019-06-20T01:15:31.681Z,1005.60
2019-06-20T01:17:27.551Z,1005.60
2019-06-20T01:18:33.000Z,1005.55
2019-06-20T01:20:32.985Z,1005.58
2019-06-20T01:21:38.511Z,1005.63
2019-06-20T01:23:40.631Z,1005.65
2019-06-20T01:24:45.577Z,1005.60
2019-06-20T01:26:45.552Z,1005.58
2019-06-20T01:27:51.081Z,1005.59
2019-06-20T01:29:53.200Z,1005.61
2019-06-20T01:31:05.987Z,1005.58
2019-06-20T01:32:58.103Z,1005.60
2019-06-20T01:34:03.689Z,1005.56
2019-06-20T01:36:05.789Z,1005.57
2019-06-20T01:37:10.686Z,1005.54
2019-06-20T01:38:16.297Z,1005.50
2019-06-20T01:39:21.808Z,1005.51
2019-06-20T01:40:27.357Z,1005.52
2019-06-20T01:43:07.119Z,1005.62
2019-06-20T01:44:12.579Z,1005.66
2019-06-20T01:46:11.609Z,1005.68
2019-06-20T01:47:17.153Z,1005.69
2019-06-20T01:49:16.108Z,1005.63
2019-06-20T01:50:21.658Z,1005.64
2019-06-20T01:52:20.647Z,1005.59
2019-06-20T01:53:26.175Z,1005.53
2019-06-20T01:55:26.236Z,1005.52
2019-06-20T01:56:31.737Z,1005.48
2019-06-20T01:57:38.169Z,1005.50
2019-06-20T01:58:42.821Z,1005.46
2019-06-20T01:59:49.171Z,1005.45
2019-06-20T02:01:01.782Z,1005.47
2019-06-20T02:02:52.920Z,1005.45
2019-06-20T02:03:58.457Z,1005.52
2019-06-20T02:05:58.424Z,1005.52
2019-06-20T02:07:03.995Z,1005.51
2019-06-20T02:09:03.933Z,1005.51
2019-06-20T02:10:09.456Z,1005.49
2019-06-20T02:12:09.052Z,1005.57
2019-06-20T02:13:14.159Z,1005.61
2019-06-20T02:15:21.782Z,1005.64
2019-06-20T02:16:19.628Z,1005.70
2019-06-20T02:18:21.368Z,1005.84
2019-06-20T02:19:26.829Z,1005.86
2019-06-20T02:20:32.392Z,1005.84
2019-06-20T02:21:37.943Z,1005.81
2019-06-20T02:22:43.493Z,1005.79
2019-06-20T02:23:49.653Z,1005.83
2019-06-20T02:24:54.599Z,1005.83
2019-06-20T02:26:00.158Z,1005.81
2019-06-20T02:27:05.709Z,1005.86
2019-06-20T02:28:11.267Z,1005.85
2019-06-20T02:29:17.729Z,1005.85
2019-06-20T02:30:45.716Z,1005.88
2019-06-20T02:32:25.443Z,1005.84
2019-06-20T02:33:29.434Z,1005.88
2019-06-20T02:35:29.393Z,1005.84
2019-06-20T02:36:34.939Z,1005.83
2019-06-20T02:38:36.609Z,1005.80
2019-06-20T02:39:41.981Z,1005.80
2019-06-20T02:41:41.942Z,1005.78
2019-06-20T02:42:47.490Z,1005.80
2019-06-20T02:46:27.239Z,1005.81
2019-06-20T02:47:32.276Z,1005.85
2019-06-20T02:48:37.838Z,1005.86
2019-06-20T02:49:43.391Z,1005.87
2019-06-20T02:50:48.943Z,1005.95
2019-06-20T02:51:55.197Z,1005.97
2019-06-20T02:53:00.060Z,1005.95
2019-06-20T02:54:05.609Z,1005.93
2019-06-20T02:55:11.164Z,1005.95
2019-06-20T02:56:16.713Z,1005.93
2019-06-20T02:57:23.205Z,1005.92
2019-06-20T02:58:27.821Z,1005.94
2019-06-20T02:59:33.390Z,1005.92
2019-06-20T03:00:46.976Z,1005.90
2019-06-20T03:02:39.524Z,1005.89
2019-06-20T03:03:44.440Z,1005.89
2019-06-20T03:05:44.407Z,1005.86
2019-06-20T03:06:49.938Z,1005.88
2019-06-20T03:07:56.467Z,1005.86
2019-06-20T03:09:01.054Z,1005.91
2019-06-20T03:10:06.627Z,1005.86
2019-06-20T03:11:12.190Z,1005.89
2019-06-20T03:12:18.436Z,1005.84
2019-06-20T03:13:23.320Z,1005.84
2019-06-20T03:14:44.289Z,1005.86
2019-06-20T03:15:42.215Z,1005.85
2019-06-20T03:17:34.359Z,1005.77
2019-06-20T03:18:39.932Z,1005.84
2019-06-20T03:20:39.847Z,1005.88
2019-06-20T03:21:45.396Z,1005.92
2019-06-20T03:23:45.477Z,1005.95
2019-06-20T03:24:50.948Z,1005.94
2019-06-20T03:26:50.875Z,1005.97
2019-06-20T03:27:56.410Z,1005.96
2019-06-20T03:31:31.655Z,1006.06
2019-06-20T03:32:36.844Z,1006.03
2019-06-20T03:33:42.405Z,1006.06
2019-06-20T03:34:48.032Z,1006.05
2019-06-20T03:35:53.512Z,1006.01
2019-06-20T03:36:59.611Z,1006.04
2019-06-20T03:38:04.627Z,1006.04
2019-06-20T03:39:10.200Z,1006.05
2019-06-20T03:40:15.729Z,1006.00
2019-06-20T03:41:21.281Z,1006.00
2019-06-20T03:42:27.601Z,1006.00
2019-06-20T03:43:32.392Z,1006.02
2019-06-20T03:44:37.939Z,1006.03
2019-06-20T03:45:51.338Z,1005.97
2019-06-20T03:47:43.126Z,1005.99
2019-06-20T03:48:48.013Z,1005.97
2019-06-20T03:49:53.569Z,1005.97
2019-06-20T03:50:59.121Z,1005.95
2019-06-20T03:52:04.679Z,1006.01
2019-06-20T03:53:10.265Z,1005.98
2019-06-20T03:54:15.780Z,1005.99
2019-06-20T03:55:21.332Z,1005.99
2019-06-20T03:56:26.893Z,1006.00
2019-06-20T03:57:32.447Z,1006.05
2019-06-20T03:58:38.080Z,1006.05
2019-06-20T03:59:43.555Z,1006.07
2019-06-20T04:00:56.931Z,1006.09
2019-06-20T04:02:49.090Z,1006.08
2019-06-20T04:03:55.627Z,1006.09
2019-06-20T04:05:54.570Z,1006.14
2019-06-20T04:07:00.118Z,1006.16
2019-06-20T04:09:00.188Z,1006.18
2019-06-20T04:11:33.725Z,1006.23
2019-06-20T04:12:39.186Z,1006.22
2019-06-20T04:14:39.186Z,1006.22
2019-06-20T04:15:52.595Z,1006.24
2019-06-20T04:17:58.431Z,1006.27
2019-06-20T04:19:03.817Z,1006.25
2019-06-20T04:20:09.372Z,1006.26
2019-06-20T04:21:14.930Z,1006.25
2019-06-20T04:22:20.480Z,1006.28
2019-06-20T04:23:26.723Z,1006.28
2019-06-20T04:24:52.606Z,1006.26
2019-06-20T04:25:37.139Z,1006.30
2019-06-20T04:26:42.703Z,1006.32
2019-06-20T04:27:48.254Z,1006.29
2019-06-20T04:28:53.843Z,1006.33
2019-06-20T04:31:28.954Z,1006.37
2019-06-20T04:32:34.390Z,1006.38
2019-06-20T04:33:39.944Z,1006.42
2019-06-20T04:34:45.507Z,1006.41
2019-06-20T04:35:51.047Z,1006.41
2019-06-20T04:36:58.186Z,1006.41
2019-06-20T04:38:02.164Z,1006.34
2019-06-20T04:39:18.874Z,1006.33
2019-06-20T04:40:13.271Z,1006.36
2019-06-20T04:41:18.821Z,1006.35
2019-06-20T04:42:25.154Z,1006.30
2019-06-20T04:43:29.934Z,1006.34
2019-06-20T04:44:35.501Z,1006.34
2019-06-20T04:45:48.755Z,1006.37
2019-06-20T04:47:40.152Z,1006.36
2019-06-20T04:48:45.563Z,1006.36
2019-06-20T04:49:51.122Z,1006.35
2019-06-20T04:50:56.679Z,1006.37
2019-06-20T04:52:02.230Z,1006.41
2019-06-20T04:53:08.623Z,1006.40
2019-06-20T04:54:13.369Z,1006.41
2019-06-20T04:55:19.545Z,1006.44
2019-06-20T04:56:24.451Z,1006.41
2019-06-20T04:57:30.016Z,1006.42
2019-06-20T04:58:36.581Z,1006.41
2019-06-20T04:59:41.105Z,1006.44
2019-06-20T05:02:14.622Z,1006.45
2019-06-20T05:03:16.298Z,1006.44
2019-06-20T05:05:16.281Z,1006.46
2019-06-20T05:06:21.800Z,1006.48
2019-06-20T05:08:21.764Z,1006.45
2019-06-20T05:09:27.362Z,1006.47
2019-06-20T05:11:26.297Z,1006.44
2019-06-20T05:12:31.839Z,1006.45
2019-06-20T05:14:32.866Z,1006.50
2019-06-20T05:15:52.672Z,1006.50
2019-06-20T05:17:38.307Z,1006.59
2019-06-20T05:18:43.877Z,1006.62
2019-06-20T05:19:50.361Z,1006.65
2019-06-20T05:20:54.944Z,1006.69
2019-06-20T05:22:00.493Z,1006.69
2019-06-20T05:23:06.053Z,1006.67
2019-06-20T05:24:11.607Z,1006.66
2019-06-20T05:25:17.162Z,1006.66
2019-06-20T05:26:22.746Z,1006.65
2019-06-20T05:27:28.267Z,1006.68
2019-06-20T05:28:33.828Z,1006.68
2019-06-20T05:29:39.377Z,1006.69
2019-06-20T05:30:44.934Z,1006.71
2019-06-20T05:31:50.489Z,1006.75
2019-06-20T05:32:56.055Z,1006.76
2019-06-20T05:34:01.596Z,1006.78
2019-06-20T05:35:07.159Z,1006.79
2019-06-20T05:36:12.711Z,1006.82
2019-06-20T05:37:18.264Z,1006.82
2019-06-20T05:38:23.826Z,1006.86
2019-06-20T05:39:29.375Z,1006.90
2019-06-20T05:40:37.236Z,1006.88
2019-06-20T05:41:40.493Z,1006.89
2019-06-20T05:42:46.040Z,1006.92
2019-06-20T05:43:51.604Z,1006.92
2019-06-20T05:46:11.773Z,1006.95
2019-06-20T05:47:17.296Z,1006.94
2019-06-20T05:49:17.251Z,1006.91
2019-06-20T05:50:22.901Z,1006.94
2019-06-20T05:51:28.364Z,1006.94
2019-06-20T05:52:33.908Z,1006.96
2019-06-20T05:53:40.319Z,1006.94
2019-06-20T05:54:56.937Z,1006.91
2019-06-20T05:55:50.577Z,1006.95
2019-06-20T05:56:56.135Z,1006.94
2019-06-20T05:58:01.693Z,1006.95
2019-06-20T05:59:08.160Z,1006.99
2019-06-20T06:00:20.572Z,1007.02
2019-06-20T06:02:12.803Z,1007.06
2019-06-20T06:03:18.977Z,1007.04
2019-06-20T06:05:19.323Z,1007.09
2019-06-20T06:06:23.822Z,1007.11
2019-06-20T06:07:29.380Z,1007.14
2019-06-20T06:08:34.932Z,1007.19
2019-06-20T06:09:40.484Z,1007.19
2019-06-20T06:10:47.069Z,1007.22
2019-06-20T06:11:51.978Z,1007.21
2019-06-20T06:12:57.166Z,1007.24
2019-06-20T06:14:02.707Z,1007.23
2019-06-20T06:15:16.961Z,1007.30
2019-06-20T06:17:08.295Z,1007.29
2019-06-20T06:18:14.224Z,1007.30
2019-06-20T06:20:13.793Z,1007.33
2019-06-20T06:21:19.334Z,1007.31
2019-06-20T06:23:19.325Z,1007.39
2019-06-20T06:24:24.839Z,1007.38
2019-06-20T06:26:24.807Z,1007.39
2019-06-20T06:27:35.371Z,1007.39
2019-06-20T06:29:30.338Z,1007.41
2019-06-20T06:30:43.600Z,1007.46
2019-06-20T06:32:40.097Z,1007.47
2019-06-20T06:33:41.369Z,1007.50
2019-06-20T06:34:46.955Z,1007.48
2019-06-20T06:35:52.491Z,1007.48
2019-06-20T06:36:58.093Z,1007.48
2019-06-20T06:38:10.480Z,1007.47
2019-06-20T06:39:09.147Z,1007.53
2019-06-20T06:40:14.709Z,1007.54
2019-06-20T06:41:20.262Z,1007.54
2019-06-20T06:42:25.813Z,1007.50
2019-06-20T06:43:41.772Z,1007.59
2019-06-20T06:44:36.923Z,1007.54
2019-06-20T06:45:50.225Z,1007.54
2019-06-20T06:47:42.462Z,1007.52
2019-06-20T06:48:50.057Z,1007.54
2019-06-20T06:50:47.943Z,1007.55
2019-06-20T06:51:53.493Z,1007.58
2019-06-20T06:53:54.565Z,1007.48
2019-06-20T06:55:00.013Z,1007.51
2019-06-20T06:56:58.961Z,1007.52
2019-06-20T06:58:04.504Z,1007.51
2019-06-20T07:00:21.304Z,1007.50
2019-06-20T07:01:19.230Z,1007.53
2019-06-20T07:03:19.106Z,1007.56
2019-06-20T07:04:24.654Z,1007.54
2019-06-20T07:06:23.652Z,1007.60
2019-06-20T07:07:29.204Z,1007.62
2019-06-20T07:09:30.114Z,1007.64
2019-06-20T07:10:44.393Z,1007.60
2019-06-20T07:12:44.301Z,1007.67
2019-06-20T07:15:09.952Z,1007.60
2019-06-20T07:16:07.822Z,1007.66
2019-06-20T07:18:11.428Z,1007.66
2019-06-20T07:19:31.833Z,1007.64
2019-06-20T07:20:22.469Z,1007.67
2019-06-20T07:21:30.850Z,1007.66
2019-06-20T07:22:35.348Z,1007.65
2019-06-20T07:23:39.835Z,1007.65
2019-06-20T07:24:44.687Z,1007.70
2019-06-20T07:26:01.059Z,1007.71
2019-06-20T07:26:55.744Z,1007.78
2019-06-20T07:28:01.288Z,1007.76
2019-06-20T07:29:06.853Z,1007.79
2019-06-20T07:30:20.089Z,1007.78
2019-06-20T07:32:12.484Z,1007.82
2019-06-20T07:33:17.937Z,1007.84
2019-06-20T07:34:23.465Z,1007.83
2019-06-20T07:35:29.012Z,1007.84
2019-06-20T07:36:34.568Z,1007.87
2019-06-20T07:37:40.941Z,1007.89
2019-06-20T07:38:45.676Z,1007.95
2019-06-20T07:39:51.230Z,1007.96
2019-06-20T07:40:56.801Z,1007.95
2019-06-20T07:42:02.356Z,1007.96
2019-06-20T07:43:09.447Z,1007.97
2019-06-20T07:44:13.446Z,1007.97
2019-06-20T07:45:27.481Z,1007.97
2019-06-20T07:47:18.986Z,1008.04
2019-06-20T07:48:29.582Z,1008.06
2019-06-20T07:50:24.497Z,1008.09
2019-06-20T07:51:30.015Z,1008.10
2019-06-20T07:53:29.998Z,1008.11
2019-06-20T07:54:35.623Z,1008.08
2019-06-20T07:55:41.141Z,1008.09
2019-06-20T07:56:46.841Z,1008.16
2019-06-20T07:58:07.077Z,1008.14
2019-06-20T07:58:57.803Z,1008.14
2019-06-20T08:00:11.014Z,1008.13
2019-06-20T08:02:02.316Z,1008.14
2019-06-20T08:03:07.844Z,1008.14
2019-06-20T08:05:17.048Z,1008.13
2019-06-20T08:06:22.466Z,1008.15
2019-06-20T08:07:28.026Z,1008.17
2019-06-20T08:08:33.580Z,1008.17
2019-06-20T08:09:44.904Z,1008.20
2019-06-20T08:10:49.410Z,1008.16
2019-06-20T08:11:50.246Z,1008.14
2019-06-20T08:12:55.804Z,1008.17
2019-06-20T08:14:01.379Z,1008.14
2019-06-20T08:15:15.988Z,1008.14
2019-06-20T08:17:09.436Z,1008.18
2019-06-20T08:18:14.969Z,1008.15
2019-06-20T08:19:20.517Z,1008.14
2019-06-20T08:20:26.077Z,1008.16
2019-06-20T08:21:31.634Z,1008.15
2019-06-20T08:22:37.229Z,1008.14
2019-06-20T08:23:42.763Z,1008.16
2019-06-20T08:24:48.956Z,1008.18
2019-06-20T08:25:53.995Z,1008.17
2019-06-20T08:27:00.362Z,1008.20
2019-06-20T08:28:06.610Z,1008.19
2019-06-20T08:29:20.716Z,1008.19
2019-06-20T08:30:16.980Z,1008.18
2019-06-20T08:31:42.640Z,1008.24
2019-06-20T08:32:27.192Z,1008.29
2019-06-20T08:33:32.781Z,1008.31
2019-06-20T08:34:38.294Z,1008.28
2019-06-20T08:35:43.851Z,1008.28
2019-06-20T08:36:51.920Z,1008.30
2019-06-20T08:37:56.054Z,1008.32
2019-06-20T08:39:00.526Z,1008.31
2019-06-20T08:40:06.569Z,1008.30
2019-06-20T08:41:11.633Z,1008.27
2019-06-20T08:42:17.205Z,1008.30
2019-06-20T08:43:22.751Z,1008.28
2019-06-20T08:44:28.311Z,1008.31
2019-06-20T08:45:41.583Z,1008.29
2019-06-20T08:47:32.958Z,1008.30
2019-06-20T08:48:38.409Z,1008.29
2019-06-20T08:50:38.409Z,1008.30
2019-06-20T08:51:43.923Z,1008.29
2019-06-20T08:53:44.889Z,1008.30
2019-06-20T08:54:50.430Z,1008.28
2019-06-20T08:56:49.443Z,1008.33
2019-06-20T08:57:56.366Z,1008.35
2019-06-20T09:01:27.097Z,1008.42
2019-06-20T09:02:32.613Z,1008.39
2019-06-20T09:03:38.176Z,1008.43
2019-06-20T09:04:43.732Z,1008.44
2019-06-20T09:05:49.315Z,1008.48
2019-06-20T09:06:56.974Z,1008.45
2019-06-20T09:09:06.074Z,1008.49
2019-06-20T09:10:33.142Z,1008.51
2019-06-20T09:11:18.666Z,1008.49
2019-06-20T09:12:33.708Z,1008.52
2019-06-20T09:13:31.122Z,1008.51
2019-06-20T09:14:33.731Z,1008.53
2019-06-20T09:15:46.977Z,1008.47
2019-06-20T09:17:38.321Z,1008.47
2019-06-20T09:18:44.828Z,1008.45
2019-06-20T09:19:50.294Z,1008.45
2019-06-20T09:20:55.981Z,1008.48
2019-06-20T09:22:00.569Z,1008.48
2019-06-20T09:23:06.087Z,1008.49
2019-06-20T09:24:13.353Z,1008.49
2019-06-20T09:25:17.139Z,1008.50
2019-06-20T09:26:22.694Z,1008.49
2019-06-20T09:27:28.250Z,1008.50
2019-06-20T09:28:33.810Z,1008.55
2019-06-20T09:29:42.140Z,1008.50
2019-06-20T09:30:53.926Z,1008.54
2019-06-20T09:32:44.904Z,1008.51
2019-06-20T09:33:52.175Z,1008.50
2019-06-20T09:35:52.155Z,1008.51
2019-06-20T09:36:57.440Z,1008.52
2019-06-20T09:38:01.490Z,1008.53
2019-06-20T09:39:07.048Z,1008.53
2019-06-20T09:40:14.500Z,1008.55
2019-06-20T09:41:18.209Z,1008.59
2019-06-20T09:42:23.714Z,1008.60
2019-06-20T09:43:29.279Z,1008.70
2019-06-20T09:44:34.827Z,1008.72
2019-06-20T09:45:49.548Z,1008.75
2019-06-20T09:47:40.369Z,1008.74
2019-06-20T09:48:45.895Z,1008.75
2019-06-20T09:50:44.882Z,1008.80
2019-06-20T09:51:50.438Z,1008.81
2019-06-20T09:53:49.961Z,1008.82
2019-06-20T09:54:56.059Z,1008.88
2019-06-20T09:56:56.543Z,1008.91
2019-06-20T09:58:00.451Z,1008.93
2019-06-20T10:00:10.636Z,1008.94
2019-06-20T10:01:05.964Z,1008.95
2019-06-20T10:03:05.935Z,1008.87
2019-06-20T10:04:11.475Z,1008.91
2019-06-20T10:06:14.423Z,1008.92
2019-06-20T10:07:16.991Z,1008.94
2019-06-20T10:09:16.953Z,1008.98
2019-06-20T10:10:22.501Z,1008.99
2019-06-20T10:12:23.557Z,1008.97
2019-06-20T10:13:32.815Z,1009.03
2019-06-20T10:15:36.655Z,1008.99
2019-06-20T10:16:45.218Z,1009.05
2019-06-20T10:18:34.529Z,1009.02
2019-06-20T10:19:40.022Z,1009.04
2019-06-20T10:21:40.035Z,1009.06
2019-06-20T10:22:46.953Z,1009.09
2019-06-20T10:24:51.229Z,1009.04
2019-06-20T10:25:55.572Z,1009.12
2019-06-20T10:27:55.560Z,1009.12
2019-06-20T10:29:01.099Z,1009.18
2019-06-20T10:31:13.690Z,1009.13
2019-06-20T10:32:21.146Z,1009.16
2019-06-20T10:33:25.654Z,1009.22
2019-06-20T10:34:31.280Z,1009.25
2019-06-20T10:35:34.908Z,1009.27
2019-06-20T10:36:40.465Z,1009.32
2019-06-20T10:37:47.151Z,1009.36
2019-06-20T10:38:52.642Z,1009.35
2019-06-20T10:39:57.196Z,1009.32
2019-06-20T10:41:02.772Z,1009.39
2019-06-20T10:42:15.126Z,1009.34
2019-06-20T10:43:24.916Z,1009.39
2019-06-20T10:44:21.140Z,1009.42
2019-06-20T10:45:32.775Z,1009.40
2019-06-20T10:47:32.603Z,1009.41
2019-06-20T10:48:30.491Z,1009.42
2019-06-20T10:50:30.437Z,1009.41
2019-06-20T10:51:35.959Z,1009.43
2019-06-20T10:52:42.498Z,1009.44
2019-06-20T10:53:47.197Z,1009.44
2019-06-20T10:54:55.462Z,1009.50
2019-06-20T10:55:58.195Z,1009.52
2019-06-20T10:57:03.745Z,1009.49
2019-06-20T10:58:09.304Z,1009.50
2019-06-20T10:59:14.866Z,1009.53
2019-06-20T11:00:31.559Z,1009.51
2019-06-20T11:02:20.408Z,1009.48
2019-06-20T11:03:25.942Z,1009.49
2019-06-20T11:05:25.959Z,1009.56
2019-06-20T11:06:33.486Z,1009.58
2019-06-20T11:07:37.011Z,1009.62
2019-06-20T11:08:43.296Z,1009.56
2019-06-20T11:09:49.403Z,1009.57
2019-06-20T11:10:54.471Z,1009.62
2019-06-20T11:11:59.240Z,1009.62
2019-06-20T11:13:04.795Z,1009.67
2019-06-20T11:14:10.367Z,1009.64
2019-06-20T11:16:43.486Z,1009.61
2019-06-20T11:17:48.327Z,1009.62
2019-06-20T11:19:46.102Z,1009.61
2019-06-20T11:20:51.653Z,1009.61
2019-06-20T11:22:58.299Z,1009.65
2019-06-20T11:24:03.200Z,1009.67
2019-06-20T11:25:08.763Z,1009.69
2019-06-20T11:26:14.325Z,1009.71
2019-06-20T11:27:19.888Z,1009.67
2019-06-20T11:28:25.439Z,1009.63
2019-06-20T11:29:31.005Z,1009.65
2019-06-20T11:30:48.246Z,1009.70
2019-06-20T11:31:45.952Z,1009.68
2019-06-20T11:32:54.643Z,1009.67
2019-06-20T11:33:53.222Z,1009.68
2019-06-20T11:34:58.782Z,1009.71
2019-06-20T11:36:04.353Z,1009.70
2019-06-20T11:37:09.927Z,1009.70
2019-06-20T11:38:15.458Z,1009.69
2019-06-20T11:39:21.025Z,1009.63
2019-06-20T11:40:26.579Z,1009.67
2019-06-20T11:41:32.136Z,1009.68
2019-06-20T11:42:37.820Z,1009.66
2019-06-20T11:43:43.261Z,1009.66
2019-06-20T11:44:48.813Z,1009.63
2019-06-20T11:46:02.136Z,1009.69
2019-06-20T11:47:54.380Z,1009.67
2019-06-20T11:49:00.903Z,1009.70
2019-06-20T11:50:59.856Z,1009.71
2019-06-20T11:52:06.396Z,1009.74
2019-06-20T11:54:06.982Z,1009.74
2019-06-20T11:55:11.923Z,1009.80
2019-06-20T11:56:17.478Z,1009.76
2019-06-20T11:57:23.035Z,1009.77
2019-06-20T11:58:28.593Z,1009.78
2019-06-20T11:59:34.211Z,1009.80
2019-06-20T12:01:02.496Z,1009.75
2019-06-20T12:02:41.101Z,1009.73
2019-06-20T12:03:45.228Z,1009.73
2019-06-20T12:05:44.834Z,1009.81
2019-06-20T12:06:51.876Z,1009.75
2019-06-20T12:08:49.767Z,1009.78
2019-06-20T12:09:55.295Z,1009.77
2019-06-20T12:11:54.371Z,1009.77
2019-06-20T12:12:59.823Z,1009.79
2019-06-20T12:15:07.510Z,1009.78
2019-06-20T12:16:05.858Z,1009.80
2019-06-20T12:18:06.930Z,1009.81
2019-06-20T12:19:12.401Z,1009.80
2019-06-20T12:20:17.974Z,1009.79
2019-06-20T12:21:23.522Z,1009.77
2019-06-20T12:22:29.084Z,1009.74
2019-06-20T12:23:35.416Z,1009.76
2019-06-20T12:24:41.651Z,1009.76
2019-06-20T12:25:46.535Z,1009.74
2019-06-20T12:26:51.330Z,1009.68
2019-06-20T12:27:56.867Z,1009.66
2019-06-20T12:29:03.449Z,1009.68
2019-06-20T12:30:15.675Z,1009.67
2019-06-20T12:32:09.980Z,1009.61
2019-06-20T12:33:13.525Z,1009.62
2019-06-20T12:35:12.749Z,1009.64
2019-06-20T12:36:18.242Z,1009.65
2019-06-20T12:38:19.264Z,1009.71
2019-06-20T12:39:24.766Z,1009.68
2019-06-20T12:41:24.745Z,1009.71
2019-06-20T12:42:30.292Z,1009.70
2019-06-20T12:44:30.263Z,1009.73
2019-06-20T12:45:44.712Z,1009.71
2019-06-20T12:47:34.802Z,1009.74
2019-06-20T12:48:41.277Z,1009.72
2019-06-20T12:50:41.496Z,1009.80
2019-06-20T12:51:47.034Z,1009.83
2019-06-20T12:53:46.547Z,1009.81
2019-06-20T12:54:51.368Z,1009.82
2019-06-20T12:55:56.933Z,1009.81
2019-06-20T12:57:02.480Z,1009.84
2019-06-20T12:58:08.034Z,1009.82
2019-06-20T12:59:13.597Z,1009.77
2019-06-20T13:00:29.370Z,1009.77
2019-06-20T13:02:19.747Z,1009.84
2019-06-20T13:03:23.679Z,1009.84
2019-06-20T13:05:23.669Z,1009.81
2019-06-20T13:06:29.204Z,1009.80
2019-06-20T13:08:28.230Z,1009.78
2019-06-20T13:09:33.761Z,1009.72
2019-06-20T13:11:33.736Z,1009.80
2019-06-20T13:12:40.674Z,1009.79
2019-06-20T13:14:40.835Z,1009.78
2019-06-20T13:15:52.495Z,1009.81
2019-06-20T13:17:45.075Z,1009.79
2019-06-20T13:18:50.483Z,1009.78
2019-06-20T13:20:50.334Z,1009.75
2019-06-20T13:21:55.835Z,1009.72
2019-06-20T13:23:55.853Z,1009.70
2019-06-20T13:25:01.357Z,1009.67
2019-06-20T13:27:01.358Z,1009.67
2019-06-20T13:28:06.887Z,1009.72
2019-06-20T13:30:14.579Z,1009.70
2019-06-20T13:31:12.419Z,1009.73
2019-06-20T13:33:12.412Z,1009.79
2019-06-20T13:34:17.940Z,1009.72
2019-06-20T13:36:16.911Z,1009.73
2019-06-20T13:37:22.464Z,1009.76
2019-06-20T13:39:21.629Z,1009.77
2019-06-20T13:40:27.017Z,1009.75
2019-06-20T13:42:26.996Z,1009.76
2019-06-20T13:43:32.536Z,1009.77
2019-06-20T13:45:54.277Z,1009.78
2019-06-20T13:46:40.026Z,1009.76
2019-06-20T13:48:40.830Z,1009.74
2019-06-20T13:49:45.815Z,1009.77
2019-06-20T13:51:45.884Z,1009.76
2019-06-20T13:52:51.268Z,1009.74
2019-06-20T13:54:50.613Z,1009.69
2019-06-20T13:55:56.175Z,1009.67
2019-06-20T13:57:56.150Z,1009.69
2019-06-20T13:59:01.681Z,1009.65
2019-06-20T14:01:00.809Z,1009.68
2019-06-20T14:02:07.209Z,1009.67
2019-06-20T14:04:06.241Z,1009.69
2019-06-20T14:05:11.777Z,1009.65
2019-06-20T14:07:13.896Z,1009.58
2019-06-20T14:08:20.811Z,1009.56
2019-06-20T14:09:24.407Z,1009.56
2019-06-20T14:10:29.943Z,1009.54
2019-06-20T14:11:35.510Z,1009.58
2019-06-20T14:12:43.048Z,1009.59
2019-06-20T14:13:49.712Z,1009.61
2019-06-20T14:14:52.352Z,1009.58
2019-06-20T14:16:05.413Z,1009.59
2019-06-20T14:17:57.809Z,1009.58
2019-06-20T14:19:04.833Z,1009.62
2019-06-20T14:20:08.820Z,1009.63
2019-06-20T14:21:14.381Z,1009.63
2019-06-20T14:22:19.941Z,1009.65
2019-06-20T14:23:27.316Z,1009.59
2019-06-20T14:24:31.822Z,1009.60
2019-06-20T14:25:36.621Z,1009.61
2019-06-20T14:26:44.657Z,1009.64
2019-06-20T14:27:49.026Z,1009.66
2019-06-20T14:28:53.299Z,1009.66
2019-06-20T14:31:11.865Z,1009.72
2019-06-20T14:32:22.253Z,1009.69
2019-06-20T14:34:17.371Z,1009.68
2019-06-20T14:35:22.932Z,1009.67
2019-06-20T14:37:21.929Z,1009.67
2019-06-20T14:38:27.446Z,1009.72
2019-06-20T14:40:29.058Z,1009.69
2019-06-20T14:43:01.090Z,1009.73
2019-06-20T14:44:14.444Z,1009.71
2019-06-20T14:46:05.582Z,1009.73
2019-06-20T14:47:11.179Z,1009.74
2019-06-20T14:49:12.796Z,1009.82
2019-06-20T14:50:18.200Z,1009.82
2019-06-20T14:51:23.758Z,1009.79
2019-06-20T14:52:29.308Z,1009.75
2019-06-20T14:53:34.878Z,1009.75
2019-06-20T23:53:39.471Z,1013.27
2019-06-20T23:55:58.027Z,1013.30
2019-06-20T23:58:20.561Z,1013.36
2019-06-20T23:59:22.671Z,1013.39
